sensor_id;sensor_type;location;lat;lon;timestamp;P1;durP1;ratioP1;P2;durP2;ratioP2
72062;SDS011;59929;43.546;-5.702;2022-07-19T00:00:41;0.28;;;0.00;;
72062;SDS011;59929;43.546;-5.702;2022-07-19T00:03:11;0.20;;;0.00;;
72062;SDS011;59929;43.546;-5.702;2022-07-19T00:05:37;0.00;;;0.00;;
72062;SDS011;59929;43.546;-5.702;2022-07-19T00:08:02;0.00;;;0.00;;
72062;SDS011;59929;43.546;-5.702;2022-07-19T00:10:28;0.00;;;0.00;;
72062;SDS011;59929;43.546;-5.702;2022-07-19T00:12:53;0.00;;;0.00;;
72062;SDS011;59929;43.546;-5.702;2022-07-19T00:15:19;0.00;;;0.00;;
72062;SDS011;59929;43.546;-5.702;2022-07-19T00:17:45;0.10;;;0.00;;
72062;SDS011;59929;43.546;-5.702;2022-07-19T00:20:11;1.15;;;0.00;;
72062;SDS011;59929;43.546;-5.702;2022-07-19T00:22:37;0.00;;;0.00;;
72062;SDS011;59929;43.546;-5.702;2022-07-19T00:25:03;0.00;;;0.00;;
72062;SDS011;59929;43.546;-5.702;2022-07-19T00:27:28;0.00;;;0.00;;
72062;SDS011;59929;43.546;-5.702;2022-07-19T00:29:54;0.00;;;0.00;;
72062;SDS011;59929;43.546;-5.702;2022-07-19T00:32:19;0.00;;;0.00;;
72062;SDS011;59929;43.546;-5.702;2022-07-19T00:34:44;0.00;;;0.00;;
72062;SDS011;59929;43.546;-5.702;2022-07-19T00:37:10;0.27;;;0.00;;
72062;SDS011;59929;43.546;-5.702;2022-07-19T00:39:35;0.10;;;0.00;;
72062;SDS011;59929;43.546;-5.702;2022-07-19T00:42:02;0.00;;;0.00;;
72062;SDS011;59929;43.546;-5.702;2022-07-19T00:44:27;0.00;;;0.00;;
72062;SDS011;59929;43.546;-5.702;2022-07-19T00:46:52;0.00;;;0.00;;
72062;SDS011;59929;43.546;-5.702;2022-07-19T00:49:18;0.00;;;0.00;;
72062;SDS011;59929;43.546;-5.702;2022-07-19T00:51:43;0.00;;;0.00;;
72062;SDS011;59929;43.546;-5.702;2022-07-19T00:54:11;0.00;;;0.00;;
72062;SDS011;59929;43.546;-5.702;2022-07-19T00:56:37;0.00;;;0.00;;
72062;SDS011;59929;43.546;-5.702;2022-07-19T00:59:03;0.00;;;0.00;;
72062;SDS011;59929;43.546;-5.702;2022-07-19T01:01:29;0.00;;;0.00;;
72062;SDS011;59929;43.546;-5.702;2022-07-19T01:03:55;0.00;;;0.00;;
72062;SDS011;59929;43.546;-5.702;2022-07-19T01:06:21;0.00;;;0.00;;
72062;SDS011;59929;43.546;-5.702;2022-07-19T01:08:47;0.10;;;0.00;;
72062;SDS011;59929;43.546;-5.702;2022-07-19T01:11:13;0.00;;;0.00;;
72062;SDS011;59929;43.546;-5.702;2022-07-19T01:13:38;0.00;;;0.00;;
72062;SDS011;59929;43.546;-5.702;2022-07-19T01:16:04;0.00;;;0.00;;
72062;SDS011;59929;43.546;-5.702;2022-07-19T01:18:29;0.00;;;0.00;;
72062;SDS011;59929;43.546;-5.702;2022-07-19T01:20:55;0.00;;;0.00;;
72062;SDS011;59929;43.546;-5.702;2022-07-19T01:23:21;0.00;;;0.00;;
72062;SDS011;59929;43.546;-5.702;2022-07-19T01:25:47;0.10;;;0.00;;
72062;SDS011;59929;43.546;-5.702;2022-07-19T01:28:12;0.00;;;0.00;;
72062;SDS011;59929;43.546;-5.702;2022-07-19T01:30:37;0.00;;;0.00;;
72062;SDS011;59929;43.546;-5.702;2022-07-19T01:33:03;0.00;;;0.00;;
72062;SDS011;59929;43.546;-5.702;2022-07-19T01:35:29;0.00;;;0.00;;
72062;SDS011;59929;43.546;-5.702;2022-07-19T01:37:54;0.00;;;0.00;;
72062;SDS011;59929;43.546;-5.702;2022-07-19T01:40:20;0.00;;;0.00;;
72062;SDS011;59929;43.546;-5.702;2022-07-19T01:42:46;0.00;;;0.00;;
72062;SDS011;59929;43.546;-5.702;2022-07-19T01:45:12;0.00;;;0.00;;
72062;SDS011;59929;43.546;-5.702;2022-07-19T01:47:38;0.00;;;0.00;;
72062;SDS011;59929;43.546;-5.702;2022-07-19T01:50:06;0.00;;;0.00;;
72062;SDS011;59929;43.546;-5.702;2022-07-19T01:52:31;0.10;;;0.00;;
72062;SDS011;59929;43.546;-5.702;2022-07-19T01:54:57;0.00;;;0.00;;
72062;SDS011;59929;43.546;-5.702;2022-07-19T01:57:22;0.10;;;0.00;;
72062;SDS011;59929;43.546;-5.702;2022-07-19T01:59:48;0.07;;;0.00;;
72062;SDS011;59929;43.546;-5.702;2022-07-19T02:02:13;0.00;;;0.00;;
72062;SDS011;59929;43.546;-5.702;2022-07-19T02:04:38;0.00;;;0.00;;
72062;SDS011;59929;43.546;-5.702;2022-07-19T02:07:04;0.00;;;0.00;;
72062;SDS011;59929;43.546;-5.702;2022-07-19T02:09:29;0.00;;;0.00;;
72062;SDS011;59929;43.546;-5.702;2022-07-19T02:11:55;0.00;;;0.00;;
72062;SDS011;59929;43.546;-5.702;2022-07-19T02:14:20;0.00;;;0.00;;
72062;SDS011;59929;43.546;-5.702;2022-07-19T02:16:45;0.00;;;0.00;;
72062;SDS011;59929;43.546;-5.702;2022-07-19T02:19:11;0.10;;;0.00;;
72062;SDS011;59929;43.546;-5.702;2022-07-19T02:21:37;0.00;;;0.00;;
72062;SDS011;59929;43.546;-5.702;2022-07-19T02:24:03;0.00;;;0.00;;
72062;SDS011;59929;43.546;-5.702;2022-07-19T02:26:28;0.00;;;0.00;;
72062;SDS011;59929;43.546;-5.702;2022-07-19T02:28:53;0.00;;;0.00;;
72062;SDS011;59929;43.546;-5.702;2022-07-19T02:31:19;0.00;;;0.00;;
72062;SDS011;59929;43.546;-5.702;2022-07-19T02:33:45;0.00;;;0.00;;
72062;SDS011;59929;43.546;-5.702;2022-07-19T02:36:10;0.00;;;0.00;;
72062;SDS011;59929;43.546;-5.702;2022-07-19T02:38:36;0.10;;;0.00;;
72062;SDS011;59929;43.546;-5.702;2022-07-19T02:41:01;0.00;;;0.00;;
72062;SDS011;59929;43.546;-5.702;2022-07-19T02:43:27;0.00;;;0.00;;
72062;SDS011;59929;43.546;-5.702;2022-07-19T02:45:52;0.00;;;0.00;;
72062;SDS011;59929;43.546;-5.702;2022-07-19T02:48:18;0.00;;;0.00;;
72062;SDS011;59929;43.546;-5.702;2022-07-19T02:50:43;0.00;;;0.00;;
72062;SDS011;59929;43.546;-5.702;2022-07-19T02:53:08;0.00;;;0.00;;
72062;SDS011;59929;43.546;-5.702;2022-07-19T02:55:34;0.10;;;0.00;;
72062;SDS011;59929;43.546;-5.702;2022-07-19T02:57:59;0.00;;;0.00;;
72062;SDS011;59929;43.546;-5.702;2022-07-19T03:00:25;0.00;;;0.00;;
72062;SDS011;59929;43.546;-5.702;2022-07-19T03:02:50;0.00;;;0.00;;
72062;SDS011;59929;43.546;-5.702;2022-07-19T03:05:16;0.00;;;0.00;;
72062;SDS011;59929;43.546;-5.702;2022-07-19T03:07:41;0.20;;;0.00;;
72062;SDS011;59929;43.546;-5.702;2022-07-19T03:10:07;0.00;;;0.00;;
72062;SDS011;59929;43.546;-5.702;2022-07-19T03:12:32;0.10;;;0.00;;
72062;SDS011;59929;43.546;-5.702;2022-07-19T03:14:58;0.10;;;0.00;;
72062;SDS011;59929;43.546;-5.702;2022-07-19T03:17:23;0.00;;;0.00;;
72062;SDS011;59929;43.546;-5.702;2022-07-19T03:19:48;0.00;;;0.00;;
72062;SDS011;59929;43.546;-5.702;2022-07-19T03:22:14;0.00;;;0.00;;
72062;SDS011;59929;43.546;-5.702;2022-07-19T03:24:39;0.00;;;0.00;;
72062;SDS011;59929;43.546;-5.702;2022-07-19T03:27:05;0.00;;;0.00;;
72062;SDS011;59929;43.546;-5.702;2022-07-19T03:29:30;0.10;;;0.00;;
72062;SDS011;59929;43.546;-5.702;2022-07-19T03:31:56;0.00;;;0.00;;
72062;SDS011;59929;43.546;-5.702;2022-07-19T03:34:21;0.00;;;0.00;;
72062;SDS011;59929;43.546;-5.702;2022-07-19T03:36:47;0.00;;;0.00;;
72062;SDS011;59929;43.546;-5.702;2022-07-19T03:39:13;0.00;;;0.00;;
72062;SDS011;59929;43.546;-5.702;2022-07-19T03:41:38;0.00;;;0.00;;
72062;SDS011;59929;43.546;-5.702;2022-07-19T03:44:04;0.00;;;0.00;;
72062;SDS011;59929;43.546;-5.702;2022-07-19T03:46:29;0.00;;;0.00;;
72062;SDS011;59929;43.546;-5.702;2022-07-19T03:48:55;0.10;;;0.00;;
72062;SDS011;59929;43.546;-5.702;2022-07-19T03:51:21;0.00;;;0.00;;
72062;SDS011;59929;43.546;-5.702;2022-07-19T03:53:47;0.00;;;0.00;;
72062;SDS011;59929;43.546;-5.702;2022-07-19T03:56:13;0.00;;;0.00;;
72062;SDS011;59929;43.546;-5.702;2022-07-19T03:58:38;0.00;;;0.00;;
72062;SDS011;59929;43.546;-5.702;2022-07-19T04:01:03;0.00;;;0.00;;
72062;SDS011;59929;43.546;-5.702;2022-07-19T04:03:29;0.00;;;0.00;;
72062;SDS011;59929;43.546;-5.702;2022-07-19T04:05:54;0.10;;;0.00;;
72062;SDS011;59929;43.546;-5.702;2022-07-19T04:08:20;0.00;;;0.00;;
72062;SDS011;59929;43.546;-5.702;2022-07-19T04:10:45;0.00;;;0.00;;
72062;SDS011;59929;43.546;-5.702;2022-07-19T04:13:11;0.10;;;0.00;;
72062;SDS011;59929;43.546;-5.702;2022-07-19T04:15:36;0.20;;;0.00;;
72062;SDS011;59929;43.546;-5.702;2022-07-19T04:18:01;0.05;;;0.00;;
72062;SDS011;59929;43.546;-5.702;2022-07-19T04:20:27;0.00;;;0.00;;
72062;SDS011;59929;43.546;-5.702;2022-07-19T04:22:52;0.00;;;0.00;;
72062;SDS011;59929;43.546;-5.702;2022-07-19T04:25:18;0.10;;;0.00;;
72062;SDS011;59929;43.546;-5.702;2022-07-19T04:27:44;0.10;;;0.00;;
72062;SDS011;59929;43.546;-5.702;2022-07-19T04:30:10;0.10;;;0.00;;
72062;SDS011;59929;43.546;-5.702;2022-07-19T04:32:35;0.10;;;0.00;;
72062;SDS011;59929;43.546;-5.702;2022-07-19T04:35:01;0.03;;;0.00;;
72062;SDS011;59929;43.546;-5.702;2022-07-19T04:37:26;0.10;;;0.00;;
72062;SDS011;59929;43.546;-5.702;2022-07-19T04:39:52;0.00;;;0.00;;
72062;SDS011;59929;43.546;-5.702;2022-07-19T04:42:17;0.00;;;0.00;;
72062;SDS011;59929;43.546;-5.702;2022-07-19T04:44:43;0.00;;;0.00;;
72062;SDS011;59929;43.546;-5.702;2022-07-19T04:47:08;0.00;;;0.00;;
72062;SDS011;59929;43.546;-5.702;2022-07-19T04:49:34;0.00;;;0.00;;
72062;SDS011;59929;43.546;-5.702;2022-07-19T04:51:59;0.00;;;0.00;;
72062;SDS011;59929;43.546;-5.702;2022-07-19T04:54:24;0.00;;;0.00;;
72062;SDS011;59929;43.546;-5.702;2022-07-19T04:56:50;0.00;;;0.00;;
72062;SDS011;59929;43.546;-5.702;2022-07-19T04:59:15;0.20;;;0.00;;
72062;SDS011;59929;43.546;-5.702;2022-07-19T05:01:41;0.40;;;0.00;;
72062;SDS011;59929;43.546;-5.702;2022-07-19T05:04:06;0.10;;;0.00;;
72062;SDS011;59929;43.546;-5.702;2022-07-19T05:06:32;0.00;;;0.00;;
72062;SDS011;59929;43.546;-5.702;2022-07-19T05:08:57;0.10;;;0.00;;
72062;SDS011;59929;43.546;-5.702;2022-07-19T05:11:23;0.05;;;0.00;;
72062;SDS011;59929;43.546;-5.702;2022-07-19T05:13:48;0.00;;;0.00;;
72062;SDS011;59929;43.546;-5.702;2022-07-19T05:16:14;0.00;;;0.00;;
72062;SDS011;59929;43.546;-5.702;2022-07-19T05:18:39;0.00;;;0.00;;
72062;SDS011;59929;43.546;-5.702;2022-07-19T05:21:05;0.10;;;0.00;;
72062;SDS011;59929;43.546;-5.702;2022-07-19T05:23:30;0.17;;;0.00;;
72062;SDS011;59929;43.546;-5.702;2022-07-19T05:25:56;0.00;;;0.00;;
72062;SDS011;59929;43.546;-5.702;2022-07-19T05:28:21;0.65;;;0.00;;
72062;SDS011;59929;43.546;-5.702;2022-07-19T05:30:47;0.20;;;0.00;;
72062;SDS011;59929;43.546;-5.702;2022-07-19T05:33:13;0.33;;;0.00;;
72062;SDS011;59929;43.546;-5.702;2022-07-19T05:35:38;0.10;;;0.00;;
72062;SDS011;59929;43.546;-5.702;2022-07-19T05:38:04;0.10;;;0.00;;
72062;SDS011;59929;43.546;-5.702;2022-07-19T05:40:29;0.20;;;0.00;;
72062;SDS011;59929;43.546;-5.702;2022-07-19T05:42:55;0.30;;;0.00;;
72062;SDS011;59929;43.546;-5.702;2022-07-19T05:45:20;0.13;;;0.00;;
72062;SDS011;59929;43.546;-5.702;2022-07-19T05:47:46;0.10;;;0.00;;
72062;SDS011;59929;43.546;-5.702;2022-07-19T05:50:11;0.10;;;0.00;;
72062;SDS011;59929;43.546;-5.702;2022-07-19T05:52:36;0.20;;;0.00;;
72062;SDS011;59929;43.546;-5.702;2022-07-19T05:55:02;0.10;;;0.00;;
72062;SDS011;59929;43.546;-5.702;2022-07-19T05:57:27;0.10;;;0.00;;
72062;SDS011;59929;43.546;-5.702;2022-07-19T05:59:53;0.00;;;0.00;;
72062;SDS011;59929;43.546;-5.702;2022-07-19T06:02:19;0.13;;;0.00;;
72062;SDS011;59929;43.546;-5.702;2022-07-19T06:04:44;0.08;;;0.00;;
72062;SDS011;59929;43.546;-5.702;2022-07-19T06:07:10;0.10;;;0.00;;
72062;SDS011;59929;43.546;-5.702;2022-07-19T06:09:35;0.23;;;0.00;;
72062;SDS011;59929;43.546;-5.702;2022-07-19T06:12:00;0.00;;;0.00;;
72062;SDS011;59929;43.546;-5.702;2022-07-19T06:14:26;0.17;;;0.00;;
72062;SDS011;59929;43.546;-5.702;2022-07-19T06:16:51;0.10;;;0.00;;
72062;SDS011;59929;43.546;-5.702;2022-07-19T06:19:18;0.00;;;0.00;;
72062;SDS011;59929;43.546;-5.702;2022-07-19T06:21:43;0.10;;;0.00;;
72062;SDS011;59929;43.546;-5.702;2022-07-19T06:24:09;0.30;;;0.00;;
72062;SDS011;59929;43.546;-5.702;2022-07-19T06:26:34;0.07;;;0.00;;
72062;SDS011;59929;43.546;-5.702;2022-07-19T06:29:00;0.10;;;0.00;;
72062;SDS011;59929;43.546;-5.702;2022-07-19T06:31:25;0.00;;;0.00;;
72062;SDS011;59929;43.546;-5.702;2022-07-19T06:33:51;0.17;;;0.00;;
72062;SDS011;59929;43.546;-5.702;2022-07-19T06:36:17;0.00;;;0.00;;
72062;SDS011;59929;43.546;-5.702;2022-07-19T06:38:42;0.38;;;0.00;;
72062;SDS011;59929;43.546;-5.702;2022-07-19T06:41:08;0.10;;;0.00;;
72062;SDS011;59929;43.546;-5.702;2022-07-19T06:43:34;0.10;;;0.00;;
72062;SDS011;59929;43.546;-5.702;2022-07-19T06:45:59;0.47;;;0.00;;
72062;SDS011;59929;43.546;-5.702;2022-07-19T06:48:25;0.10;;;0.00;;
72062;SDS011;59929;43.546;-5.702;2022-07-19T06:50:50;0.38;;;0.00;;
72062;SDS011;59929;43.546;-5.702;2022-07-19T06:53:15;0.00;;;0.00;;
72062;SDS011;59929;43.546;-5.702;2022-07-19T06:55:41;0.10;;;0.00;;
72062;SDS011;59929;43.546;-5.702;2022-07-19T06:58:06;0.20;;;0.00;;
72062;SDS011;59929;43.546;-5.702;2022-07-19T07:00:32;0.20;;;0.00;;
72062;SDS011;59929;43.546;-5.702;2022-07-19T07:02:57;0.00;;;0.00;;
72062;SDS011;59929;43.546;-5.702;2022-07-19T07:05:23;0.00;;;0.00;;
72062;SDS011;59929;43.546;-5.702;2022-07-19T07:07:48;0.20;;;0.00;;
72062;SDS011;59929;43.546;-5.702;2022-07-19T07:10:16;0.00;;;0.00;;
72062;SDS011;59929;43.546;-5.702;2022-07-19T07:12:42;0.10;;;0.00;;
72062;SDS011;59929;43.546;-5.702;2022-07-19T07:15:07;0.07;;;0.00;;
72062;SDS011;59929;43.546;-5.702;2022-07-19T07:17:34;0.30;;;0.00;;
72062;SDS011;59929;43.546;-5.702;2022-07-19T07:19:59;0.10;;;0.00;;
72062;SDS011;59929;43.546;-5.702;2022-07-19T07:22:25;0.10;;;0.00;;
72062;SDS011;59929;43.546;-5.702;2022-07-19T07:24:50;0.10;;;0.00;;
72062;SDS011;59929;43.546;-5.702;2022-07-19T07:27:15;0.00;;;0.00;;
72062;SDS011;59929;43.546;-5.702;2022-07-19T07:29:41;0.77;;;0.00;;
72062;SDS011;59929;43.546;-5.702;2022-07-19T07:32:06;0.20;;;0.00;;
72062;SDS011;59929;43.546;-5.702;2022-07-19T07:34:32;0.03;;;0.00;;
72062;SDS011;59929;43.546;-5.702;2022-07-19T07:36:57;0.10;;;0.00;;
72062;SDS011;59929;43.546;-5.702;2022-07-19T07:39:22;0.13;;;0.00;;
72062;SDS011;59929;43.546;-5.702;2022-07-19T07:41:48;0.10;;;0.00;;
72062;SDS011;59929;43.546;-5.702;2022-07-19T07:44:13;0.00;;;0.00;;
72062;SDS011;59929;43.546;-5.702;2022-07-19T07:46:39;0.00;;;0.00;;
72062;SDS011;59929;43.546;-5.702;2022-07-19T07:49:05;0.00;;;0.00;;
72062;SDS011;59929;43.546;-5.702;2022-07-19T07:51:30;0.07;;;0.00;;
72062;SDS011;59929;43.546;-5.702;2022-07-19T07:53:57;0.00;;;0.00;;
72062;SDS011;59929;43.546;-5.702;2022-07-19T07:56:23;0.20;;;0.00;;
72062;SDS011;59929;43.546;-5.702;2022-07-19T07:58:49;0.00;;;0.00;;
72062;SDS011;59929;43.546;-5.702;2022-07-19T08:01:14;0.00;;;0.00;;
72062;SDS011;59929;43.546;-5.702;2022-07-19T08:03:41;0.00;;;0.00;;
72062;SDS011;59929;43.546;-5.702;2022-07-19T08:06:06;0.10;;;0.00;;
72062;SDS011;59929;43.546;-5.702;2022-07-19T08:08:32;0.10;;;0.00;;
72062;SDS011;59929;43.546;-5.702;2022-07-19T08:10:57;0.10;;;0.00;;
72062;SDS011;59929;43.546;-5.702;2022-07-19T08:13:23;0.00;;;0.00;;
72062;SDS011;59929;43.546;-5.702;2022-07-19T08:15:48;0.00;;;0.00;;
72062;SDS011;59929;43.546;-5.702;2022-07-19T08:18:14;0.03;;;0.00;;
72062;SDS011;59929;43.546;-5.702;2022-07-19T08:20:39;0.00;;;0.00;;
72062;SDS011;59929;43.546;-5.702;2022-07-19T08:23:04;0.07;;;0.00;;
72062;SDS011;59929;43.546;-5.702;2022-07-19T08:25:30;0.30;;;0.00;;
72062;SDS011;59929;43.546;-5.702;2022-07-19T08:27:57;0.25;;;0.00;;
72062;SDS011;59929;43.546;-5.702;2022-07-19T08:30:22;0.20;;;0.00;;
72062;SDS011;59929;43.546;-5.702;2022-07-19T08:32:48;0.13;;;0.00;;
72062;SDS011;59929;43.546;-5.702;2022-07-19T08:35:13;0.00;;;0.00;;
72062;SDS011;59929;43.546;-5.702;2022-07-19T08:37:39;0.10;;;0.00;;
72062;SDS011;59929;43.546;-5.702;2022-07-19T08:40:05;0.20;;;0.00;;
72062;SDS011;59929;43.546;-5.702;2022-07-19T08:42:30;0.15;;;0.00;;
72062;SDS011;59929;43.546;-5.702;2022-07-19T08:44:57;0.20;;;0.00;;
72062;SDS011;59929;43.546;-5.702;2022-07-19T08:47:24;0.00;;;0.00;;
72062;SDS011;59929;43.546;-5.702;2022-07-19T08:49:51;0.10;;;0.00;;
72062;SDS011;59929;43.546;-5.702;2022-07-19T08:52:16;0.00;;;0.00;;
72062;SDS011;59929;43.546;-5.702;2022-07-19T08:54:44;0.00;;;0.00;;
72062;SDS011;59929;43.546;-5.702;2022-07-19T08:57:10;0.03;;;0.00;;
72062;SDS011;59929;43.546;-5.702;2022-07-19T08:59:50;0.00;;;0.00;;
72062;SDS011;59929;43.546;-5.702;2022-07-19T09:02:16;0.00;;;0.00;;
72062;SDS011;59929;43.546;-5.702;2022-07-19T09:04:41;0.30;;;0.00;;
72062;SDS011;59929;43.546;-5.702;2022-07-19T09:07:07;0.00;;;0.00;;
72062;SDS011;59929;43.546;-5.702;2022-07-19T09:09:33;0.47;;;0.00;;
72062;SDS011;59929;43.546;-5.702;2022-07-19T09:12:00;0.20;;;0.00;;
72062;SDS011;59929;43.546;-5.702;2022-07-19T09:14:27;0.00;;;0.00;;
72062;SDS011;59929;43.546;-5.702;2022-07-19T09:17:08;0.03;;;0.00;;
72062;SDS011;59929;43.546;-5.702;2022-07-19T09:19:37;0.25;;;0.00;;
72062;SDS011;59929;43.546;-5.702;2022-07-19T09:22:05;0.00;;;0.00;;
72062;SDS011;59929;43.546;-5.702;2022-07-19T09:24:32;0.10;;;0.00;;
72062;SDS011;59929;43.546;-5.702;2022-07-19T09:26:59;0.00;;;0.00;;
72062;SDS011;59929;43.546;-5.702;2022-07-19T09:29:25;0.00;;;0.00;;
72062;SDS011;59929;43.546;-5.702;2022-07-19T09:32:07;0.00;;;0.00;;
72062;SDS011;59929;43.546;-5.702;2022-07-19T09:34:34;0.10;;;0.00;;
72062;SDS011;59929;43.546;-5.702;2022-07-19T09:39:42;0.00;;;0.00;;
72062;SDS011;59929;43.546;-5.702;2022-07-19T09:42:11;0.00;;;0.00;;
72062;SDS011;59929;43.546;-5.702;2022-07-19T09:44:36;0.10;;;0.00;;
72062;SDS011;59929;43.546;-5.702;2022-07-19T09:47:02;0.10;;;0.00;;
72062;SDS011;59929;43.546;-5.702;2022-07-19T09:49:28;0.00;;;0.00;;
72062;SDS011;59929;43.546;-5.702;2022-07-19T09:51:53;0.00;;;0.00;;
72062;SDS011;59929;43.546;-5.702;2022-07-19T09:54:21;0.00;;;0.00;;
72062;SDS011;59929;43.546;-5.702;2022-07-19T09:56:47;0.00;;;0.00;;
72062;SDS011;59929;43.546;-5.702;2022-07-19T09:59:13;0.10;;;0.00;;
72062;SDS011;59929;43.546;-5.702;2022-07-19T10:01:39;0.10;;;0.00;;
72062;SDS011;59929;43.546;-5.702;2022-07-19T10:04:07;0.00;;;0.00;;
72062;SDS011;59929;43.546;-5.702;2022-07-19T10:06:33;0.00;;;0.00;;
72062;SDS011;59929;43.546;-5.702;2022-07-19T10:08:59;0.00;;;0.00;;
72062;SDS011;59929;43.546;-5.702;2022-07-19T10:11:25;0.00;;;0.00;;
72062;SDS011;59929;43.546;-5.702;2022-07-19T10:13:50;0.20;;;0.00;;
72062;SDS011;59929;43.546;-5.702;2022-07-19T10:16:19;0.10;;;0.00;;
72062;SDS011;59929;43.546;-5.702;2022-07-19T10:18:58;0.10;;;0.00;;
72062;SDS011;59929;43.546;-5.702;2022-07-19T10:21:26;0.22;;;0.00;;
72062;SDS011;59929;43.546;-5.702;2022-07-19T10:23:52;0.10;;;0.00;;
72062;SDS011;59929;43.546;-5.702;2022-07-19T10:29:06;0.10;;;0.00;;
72062;SDS011;59929;43.546;-5.702;2022-07-19T10:31:32;0.20;;;0.00;;
72062;SDS011;59929;43.546;-5.702;2022-07-19T10:34:04;0.00;;;0.00;;
72062;SDS011;59929;43.546;-5.702;2022-07-19T10:36:30;0.10;;;0.00;;
72062;SDS011;59929;43.546;-5.702;2022-07-19T10:41:39;0.00;;;0.00;;
72062;SDS011;59929;43.546;-5.702;2022-07-19T10:44:08;0.00;;;0.00;;
72062;SDS011;59929;43.546;-5.702;2022-07-19T10:46:34;0.00;;;0.00;;
72062;SDS011;59929;43.546;-5.702;2022-07-19T10:48:59;0.00;;;0.00;;
72062;SDS011;59929;43.546;-5.702;2022-07-19T10:51:28;0.00;;;0.00;;
72062;SDS011;59929;43.546;-5.702;2022-07-19T10:53:54;0.10;;;0.00;;
72062;SDS011;59929;43.546;-5.702;2022-07-19T10:56:24;0.20;;;0.00;;
72062;SDS011;59929;43.546;-5.702;2022-07-19T10:58:51;0.00;;;0.00;;
72062;SDS011;59929;43.546;-5.702;2022-07-19T11:01:18;0.00;;;0.00;;
72062;SDS011;59929;43.546;-5.702;2022-07-19T11:03:46;0.03;;;0.00;;
72062;SDS011;59929;43.546;-5.702;2022-07-19T11:06:18;0.10;;;0.00;;
72062;SDS011;59929;43.546;-5.702;2022-07-19T11:08:44;0.10;;;0.00;;
72062;SDS011;59929;43.546;-5.702;2022-07-19T11:11:10;0.10;;;0.00;;
72062;SDS011;59929;43.546;-5.702;2022-07-19T11:13:37;0.00;;;0.00;;
72062;SDS011;59929;43.546;-5.702;2022-07-19T11:16:03;0.07;;;0.00;;
72062;SDS011;59929;43.546;-5.702;2022-07-19T11:18:29;0.20;;;0.00;;
72062;SDS011;59929;43.546;-5.702;2022-07-19T11:20:56;0.00;;;0.00;;
72062;SDS011;59929;43.546;-5.702;2022-07-19T11:23:22;0.00;;;0.00;;
72062;SDS011;59929;43.546;-5.702;2022-07-19T11:25:48;0.00;;;0.00;;
72062;SDS011;59929;43.546;-5.702;2022-07-19T11:28:24;0.05;;;0.00;;
72062;SDS011;59929;43.546;-5.702;2022-07-19T11:30:49;0.00;;;0.00;;
72062;SDS011;59929;43.546;-5.702;2022-07-19T11:33:16;0.00;;;0.00;;
72062;SDS011;59929;43.546;-5.702;2022-07-19T11:35:52;0.08;;;0.00;;
72062;SDS011;59929;43.546;-5.702;2022-07-19T11:38:17;0.10;;;0.00;;
72062;SDS011;59929;43.546;-5.702;2022-07-19T11:40:43;0.08;;;0.00;;
72062;SDS011;59929;43.546;-5.702;2022-07-19T11:43:08;0.00;;;0.00;;
72062;SDS011;59929;43.546;-5.702;2022-07-19T11:45:40;0.17;;;0.00;;
72062;SDS011;59929;43.546;-5.702;2022-07-19T11:48:06;0.20;;;0.00;;
72062;SDS011;59929;43.546;-5.702;2022-07-19T11:50:31;0.20;;;0.00;;
72062;SDS011;59929;43.546;-5.702;2022-07-19T11:52:57;0.10;;;0.00;;
72062;SDS011;59929;43.546;-5.702;2022-07-19T11:55:24;0.08;;;0.00;;
72062;SDS011;59929;43.546;-5.702;2022-07-19T11:57:51;0.10;;;0.00;;
72062;SDS011;59929;43.546;-5.702;2022-07-19T12:00:17;0.10;;;0.00;;
72062;SDS011;59929;43.546;-5.702;2022-07-19T12:02:50;0.27;;;0.00;;
72062;SDS011;59929;43.546;-5.702;2022-07-19T12:05:16;0.00;;;0.00;;
72062;SDS011;59929;43.546;-5.702;2022-07-19T12:07:49;0.10;;;0.00;;
72062;SDS011;59929;43.546;-5.702;2022-07-19T12:12:54;0.22;;;0.03;;
72062;SDS011;59929;43.546;-5.702;2022-07-19T12:15:19;0.10;;;0.00;;
72062;SDS011;59929;43.546;-5.702;2022-07-19T12:17:54;0.10;;;0.00;;
72062;SDS011;59929;43.546;-5.702;2022-07-19T12:20:19;0.10;;;0.00;;
72062;SDS011;59929;43.546;-5.702;2022-07-19T12:22:45;0.20;;;0.00;;
72062;SDS011;59929;43.546;-5.702;2022-07-19T12:25:10;0.37;;;0.00;;
72062;SDS011;59929;43.546;-5.702;2022-07-19T12:27:35;0.10;;;0.00;;
72062;SDS011;59929;43.546;-5.702;2022-07-19T12:30:01;0.10;;;0.00;;
72062;SDS011;59929;43.546;-5.702;2022-07-19T12:32:35;0.00;;;0.00;;
72062;SDS011;59929;43.546;-5.702;2022-07-19T12:35:02;0.05;;;0.00;;
72062;SDS011;59929;43.546;-5.702;2022-07-19T12:37:35;0.10;;;0.00;;
72062;SDS011;59929;43.546;-5.702;2022-07-19T12:42:43;0.00;;;0.00;;
72062;SDS011;59929;43.546;-5.702;2022-07-19T12:45:11;0.00;;;0.00;;
72062;SDS011;59929;43.546;-5.702;2022-07-19T12:47:37;0.10;;;0.00;;
72062;SDS011;59929;43.546;-5.702;2022-07-19T12:50:03;0.00;;;0.00;;
72062;SDS011;59929;43.546;-5.702;2022-07-19T12:52:29;0.00;;;0.00;;
72062;SDS011;59929;43.546;-5.702;2022-07-19T12:54:54;0.10;;;0.00;;
72062;SDS011;59929;43.546;-5.702;2022-07-19T12:57:19;0.10;;;0.00;;
72062;SDS011;59929;43.546;-5.702;2022-07-19T12:59:45;0.05;;;0.00;;
72062;SDS011;59929;43.546;-5.702;2022-07-19T13:02:12;0.10;;;0.00;;
72062;SDS011;59929;43.546;-5.702;2022-07-19T13:04:38;0.00;;;0.00;;
72062;SDS011;59929;43.546;-5.702;2022-07-19T13:07:04;0.00;;;0.00;;
72062;SDS011;59929;43.546;-5.702;2022-07-19T13:09:31;0.10;;;0.00;;
72062;SDS011;59929;43.546;-5.702;2022-07-19T13:11:56;0.10;;;0.00;;
72062;SDS011;59929;43.546;-5.702;2022-07-19T13:14:22;0.10;;;0.00;;
72062;SDS011;59929;43.546;-5.702;2022-07-19T13:16:49;0.25;;;0.00;;
72062;SDS011;59929;43.546;-5.702;2022-07-19T13:19:14;0.00;;;0.00;;
72062;SDS011;59929;43.546;-5.702;2022-07-19T13:21:40;0.10;;;0.00;;
72062;SDS011;59929;43.546;-5.702;2022-07-19T13:24:05;0.10;;;0.00;;
72062;SDS011;59929;43.546;-5.702;2022-07-19T13:26:31;0.10;;;0.00;;
72062;SDS011;59929;43.546;-5.702;2022-07-19T13:28:56;0.10;;;0.00;;
72062;SDS011;59929;43.546;-5.702;2022-07-19T13:31:22;0.10;;;0.00;;
72062;SDS011;59929;43.546;-5.702;2022-07-19T13:33:47;0.10;;;0.00;;
72062;SDS011;59929;43.546;-5.702;2022-07-19T13:36:12;0.00;;;0.00;;
72062;SDS011;59929;43.546;-5.702;2022-07-19T13:38:38;0.10;;;0.00;;
72062;SDS011;59929;43.546;-5.702;2022-07-19T13:41:06;0.10;;;0.00;;
72062;SDS011;59929;43.546;-5.702;2022-07-19T13:43:31;0.20;;;0.07;;
72062;SDS011;59929;43.546;-5.702;2022-07-19T13:45:57;0.17;;;0.00;;
72062;SDS011;59929;43.546;-5.702;2022-07-19T13:48:23;0.20;;;0.10;;
72062;SDS011;59929;43.546;-5.702;2022-07-19T13:50:49;0.10;;;0.00;;
72062;SDS011;59929;43.546;-5.702;2022-07-19T13:53:14;0.00;;;0.00;;
72062;SDS011;59929;43.546;-5.702;2022-07-19T13:55:40;0.10;;;0.00;;
72062;SDS011;59929;43.546;-5.702;2022-07-19T13:58:05;0.10;;;0.00;;
72062;SDS011;59929;43.546;-5.702;2022-07-19T14:00:31;0.27;;;0.10;;
72062;SDS011;59929;43.546;-5.702;2022-07-19T14:02:56;0.40;;;0.20;;
72062;SDS011;59929;43.546;-5.702;2022-07-19T14:05:22;0.80;;;0.60;;
72062;SDS011;59929;43.546;-5.702;2022-07-19T14:07:47;0.85;;;0.65;;
72062;SDS011;59929;43.546;-5.702;2022-07-19T14:10:13;1.20;;;1.00;;
72062;SDS011;59929;43.546;-5.702;2022-07-19T14:12:38;1.33;;;1.03;;
72062;SDS011;59929;43.546;-5.702;2022-07-19T14:15:04;1.67;;;1.50;;
72062;SDS011;59929;43.546;-5.702;2022-07-19T14:17:29;1.50;;;1.30;;
72062;SDS011;59929;43.546;-5.702;2022-07-19T14:19:55;2.20;;;2.00;;
72062;SDS011;59929;43.546;-5.702;2022-07-19T14:22:20;2.53;;;2.33;;
72062;SDS011;59929;43.546;-5.702;2022-07-19T14:24:46;4.70;;;4.40;;
72062;SDS011;59929;43.546;-5.702;2022-07-19T14:27:11;3.93;;;3.63;;
72062;SDS011;59929;43.546;-5.702;2022-07-19T14:29:37;4.63;;;4.32;;
72062;SDS011;59929;43.546;-5.702;2022-07-19T14:32:02;6.43;;;6.03;;
72062;SDS011;59929;43.546;-5.702;2022-07-19T14:34:28;6.07;;;5.67;;
72062;SDS011;59929;43.546;-5.702;2022-07-19T14:36:53;6.40;;;6.00;;
72062;SDS011;59929;43.546;-5.702;2022-07-19T14:39:19;4.63;;;4.32;;